sensor_id;sensor_type;location;lat;lon;timestamp;pressure;altitude;pressure_sealevel;temperature;humidity
72942;BME280;69665;55.822;37.330;2024-02-23T00:02:18;99748.97;;;0.28;63.64
72942;BME280;69665;55.822;37.330;2024-02-23T00:04:44;99759.34;;;0.33;62.58
72942;BME280;69665;55.822;37.330;2024-02-23T00:07:10;99752.44;;;0.30;63.13
72942;BME280;69665;55.822;37.330;2024-02-23T00:09:36;99766.31;;;0.42;63.70
72942;BME280;69665;55.822;37.330;2024-02-23T00:12:02;99766.34;;;0.45;63.34
72942;BME280;69665;55.822;37.330;2024-02-23T00:14:29;99779.31;;;0.48;62.62
72942;BME280;69665;55.822;37.330;2024-02-23T00:16:57;99751.59;;;0.33;63.19
72942;BME280;69665;55.822;37.330;2024-02-23T00:19:24;99775.88;;;0.52;63.21
72942;BME280;69665;55.822;37.330;2024-02-23T00:21:50;99769.81;;;0.48;63.48
72942;BME280;69665;55.822;37.330;2024-02-23T00:24:18;99770.66;;;0.47;64.37
72942;BME280;69665;55.822;37.330;2024-02-23T00:26:48;99764.63;;;0.48;64.19
72942;BME280;69665;55.822;37.330;2024-02-23T00:29:16;99750.75;;;0.37;63.24
72942;BME280;69665;55.822;37.330;2024-02-23T00:31:42;99775.84;;;0.50;63.64
72942;BME280;69665;55.822;37.330;2024-02-23T00:34:10;99774.97;;;0.47;62.96
72942;BME280;69665;55.822;37.330;2024-02-23T00:36:39;99779.31;;;0.48;63.47
72942;BME280;69665;55.822;37.330;2024-02-23T00:39:06;99770.66;;;0.49;63.72
72942;BME280;69665;55.822;37.330;2024-02-23T00:41:34;99781.88;;;0.45;64.02
72942;BME280;69665;55.822;37.330;2024-02-23T00:44:01;99766.34;;;0.45;63.36
72942;BME280;69665;55.822;37.330;2024-02-23T00:46:29;99784.50;;;0.57;63.87
72942;BME280;69665;55.822;37.330;2024-02-23T00:48:58;99751.63;;;0.39;64.06
72942;BME280;69665;55.822;37.330;2024-02-23T00:51:25;99788.03;;;0.70;63.34
72942;BME280;69665;55.822;37.330;2024-02-23T00:53:50;99792.34;;;0.69;63.30
72942;BME280;69665;55.822;37.330;2024-02-23T00:56:16;99774.19;;;0.66;63.59
72942;BME280;69665;55.822;37.330;2024-02-23T00:58:42;99776.78;;;0.64;63.33
72942;BME280;69665;55.822;37.330;2024-02-23T01:01:07;99769.84;;;0.60;62.76
72942;BME280;69665;55.822;37.330;2024-02-23T01:03:33;99789.72;;;0.63;63.18
72942;BME280;69665;55.822;37.330;2024-02-23T01:05:59;99791.44;;;0.62;63.17
72942;BME280;69665;55.822;37.330;2024-02-23T01:08:24;99789.69;;;0.60;62.91
72942;BME280;69665;55.822;37.330;2024-02-23T01:10:50;99760.25;;;0.38;62.28
72942;BME280;69665;55.822;37.330;2024-02-23T01:13:16;99772.38;;;0.47;62.10
72942;BME280;69665;55.822;37.330;2024-02-23T01:15:42;99762.00;;;0.45;62.73
72942;BME280;69665;55.822;37.330;2024-02-23T01:18:07;99775.00;;;0.57;62.71
72942;BME280;69665;55.822;37.330;2024-02-23T01:20:33;99773.28;;;0.58;62.19
72942;BME280;69665;55.822;37.330;2024-02-23T01:22:59;99787.16;;;0.67;62.00
72942;BME280;69665;55.822;37.330;2024-02-23T01:25:25;99773.34;;;0.68;61.35
72942;BME280;69665;55.822;37.330;2024-02-23T01:27:51;99781.97;;;0.71;61.65
72942;BME280;69665;55.822;37.330;2024-02-23T01:30:18;99783.72;;;0.70;61.79
72942;BME280;69665;55.822;37.330;2024-02-23T01:32:46;99783.69;;;0.65;61.45
72942;BME280;69665;55.822;37.330;2024-02-23T01:35:11;99761.19;;;0.57;62.04
72942;BME280;69665;55.822;37.330;2024-02-23T01:37:37;99792.28;;;0.60;61.29
72942;BME280;69665;55.822;37.330;2024-02-23T01:40:03;99765.47;;;0.46;61.41
72942;BME280;69665;55.822;37.330;2024-02-23T01:42:29;99778.44;;;0.53;61.84
72942;BME280;69665;55.822;37.330;2024-02-23T01:44:58;99774.13;;;0.54;62.40
72942;BME280;69665;55.822;37.330;2024-02-23T01:47:24;99769.81;;;0.54;62.04
72942;BME280;69665;55.822;37.330;2024-02-23T01:49:51;99772.41;;;0.56;61.51
72942;BME280;69665;55.822;37.330;2024-02-23T01:52:17;99764.59;;;0.44;62.52
72942;BME280;69665;55.822;37.330;2024-02-23T01:54:43;99780.19;;;0.57;62.35
72942;BME280;69665;55.822;37.330;2024-02-23T01:57:09;99781.94;;;0.60;61.14
72942;BME280;69665;55.822;37.330;2024-02-23T01:59:38;99786.22;;;0.58;61.35
72942;BME280;69665;55.822;37.330;2024-02-23T02:02:04;99759.44;;;0.50;62.10
72942;BME280;69665;55.822;37.330;2024-02-23T02:04:31;99743.88;;;0.45;61.80
72942;BME280;69665;55.822;37.330;2024-02-23T02:06:58;99741.25;;;0.39;61.56
72942;BME280;69665;55.822;37.330;2024-02-23T02:09:25;99778.47;;;0.59;62.67
72942;BME280;69665;55.822;37.330;2024-02-23T02:11:53;99754.25;;;0.48;61.48
72942;BME280;69665;55.822;37.330;2024-02-23T02:14:19;99753.38;;;0.46;62.70
72942;BME280;69665;55.822;37.330;2024-02-23T02:16:45;99769.81;;;0.56;62.42
72942;BME280;69665;55.822;37.330;2024-02-23T02:19:11;99766.38;;;0.58;62.81
72942;BME280;69665;55.822;37.330;2024-02-23T02:21:37;99762.03;;;0.56;62.67
72942;BME280;69665;55.822;37.330;2024-02-23T02:24:04;99763.78;;;0.58;63.37
72942;BME280;69665;55.822;37.330;2024-02-23T02:26:31;99756.88;;;0.57;62.88
72942;BME280;69665;55.822;37.330;2024-02-23T02:28:57;99764.69;;;0.70;62.07
72942;BME280;69665;55.822;37.330;2024-02-23T02:31:23;99772.47;;;0.71;62.41
72942;BME280;69665;55.822;37.330;2024-02-23T02:33:48;99775.06;;;0.71;62.56
72942;BME280;69665;55.822;37.330;2024-02-23T02:36:14;99775.94;;;0.73;62.51
72942;BME280;69665;55.822;37.330;2024-02-23T02:38:40;99770.75;;;0.70;62.08
72942;BME280;69665;55.822;37.330;2024-02-23T02:41:05;99770.78;;;0.76;62.61
72942;BME280;69665;55.822;37.330;2024-02-23T02:43:32;99763.00;;;0.78;62.16
72942;BME280;69665;55.822;37.330;2024-02-23T02:45:58;99742.22;;;0.64;61.16
72942;BME280;69665;55.822;37.330;2024-02-23T02:48:24;99763.88;;;0.77;62.33
72942;BME280;69665;55.822;37.330;2024-02-23T02:50:50;99752.59;;;0.70;62.20
72942;BME280;69665;55.822;37.330;2024-02-23T02:53:17;99738.78;;;0.65;61.35
72942;BME280;69665;55.822;37.330;2024-02-23T02:55:44;99770.78;;;0.84;62.42
72942;BME280;69665;55.822;37.330;2024-02-23T02:58:13;99778.56;;;0.88;61.38
72942;BME280;69665;55.822;37.330;2024-02-23T03:00:39;99775.97;;;0.88;61.23
72942;BME280;69665;55.822;37.330;2024-02-23T03:03:06;99764.75;;;0.88;61.59
72942;BME280;69665;55.822;37.330;2024-02-23T03:05:32;99743.09;;;0.66;61.66
72942;BME280;69665;55.822;37.330;2024-02-23T03:07:57;99770.78;;;0.76;61.94
72942;BME280;69665;55.822;37.330;2024-02-23T03:10:23;99762.97;;;0.67;62.19
72942;BME280;69665;55.822;37.330;2024-02-23T03:12:48;99782.84;;;0.73;61.44
72942;BME280;69665;55.822;37.330;2024-02-23T03:15:14;99770.72;;;0.65;62.76
72942;BME280;69665;55.822;37.330;2024-02-23T03:17:41;99776.81;;;0.75;62.64
72942;BME280;69665;55.822;37.330;2024-02-23T03:20:07;99803.59;;;0.83;61.58
72942;BME280;69665;55.822;37.330;2024-02-23T03:22:39;99790.63;;;0.74;61.28
72942;BME280;69665;55.822;37.330;2024-02-23T03:25:05;99792.38;;;0.81;62.25
72942;BME280;69665;55.822;37.330;2024-02-23T03:27:36;99792.38;;;0.83;61.83
72942;BME280;69665;55.822;37.330;2024-02-23T03:30:05;99767.28;;;0.65;61.69
72942;BME280;69665;55.822;37.330;2024-02-23T03:32:34;99776.75;;;0.63;61.35
72942;BME280;69665;55.822;37.330;2024-02-23T03:35:05;99806.22;;;0.86;61.58
72942;BME280;69665;55.822;37.330;2024-02-23T03:37:32;99809.66;;;0.87;61.59
72942;BME280;69665;55.822;37.330;2024-02-23T03:39:58;99791.50;;;0.73;61.66
72942;BME280;69665;55.822;37.330;2024-02-23T03:42:25;99819.16;;;0.83;61.01
72942;BME280;69665;55.822;37.330;2024-02-23T03:44:51;99810.50;;;0.78;62.12
72942;BME280;69665;55.822;37.330;2024-02-23T03:47:17;99816.56;;;0.74;62.44
72942;BME280;69665;55.822;37.330;2024-02-23T03:49:43;99819.13;;;0.79;62.41
72942;BME280;69665;55.822;37.330;2024-02-23T03:52:08;99807.88;;;0.69;62.09
72942;BME280;69665;55.822;37.330;2024-02-23T03:54:35;99817.41;;;0.73;62.06
72942;BME280;69665;55.822;37.330;2024-02-23T03:57:00;99817.41;;;0.72;62.07
72942;BME280;69665;55.822;37.330;2024-02-23T03:59:26;99798.34;;;0.62;62.42
72942;BME280;69665;55.822;37.330;2024-02-23T04:01:52;99774.09;;;0.42;61.80
72942;BME280;69665;55.822;37.330;2024-02-23T04:04:18;99800.94;;;0.60;62.18
72942;BME280;69665;55.822;37.330;2024-02-23T04:06:43;99806.97;;;0.52;62.22
72942;BME280;69665;55.822;37.330;2024-02-23T04:09:09;99825.09;;;0.58;61.41
72942;BME280;69665;55.822;37.330;2024-02-23T04:11:34;99806.06;;;0.47;61.99
72942;BME280;69665;55.822;37.330;2024-02-23T04:14:01;99813.81;;;0.42;62.78
72942;BME280;69665;55.822;37.330;2024-02-23T04:16:27;99814.59;;;0.30;62.89
72942;BME280;69665;55.822;37.330;2024-02-23T04:18:53;99827.63;;;0.46;62.15
72942;BME280;69665;55.822;37.330;2024-02-23T04:21:19;99841.47;;;0.49;62.30
72942;BME280;69665;55.822;37.330;2024-02-23T04:23:45;99819.88;;;0.47;62.38
72942;BME280;69665;55.822;37.330;2024-02-23T04:26:10;99834.56;;;0.53;62.63
72942;BME280;69665;55.822;37.330;2024-02-23T04:28:40;99823.34;;;0.54;62.88
72942;BME280;69665;55.822;37.330;2024-02-23T04:31:06;99790.47;;;0.41;63.51
72942;BME280;69665;55.822;37.330;2024-02-23T04:33:31;99814.69;;;0.47;63.87
72942;BME280;69665;55.822;37.330;2024-02-23T04:35:58;99833.69;;;0.45;64.02
72942;BME280;69665;55.822;37.330;2024-02-23T04:38:24;99826.81;;;0.50;63.07
72942;BME280;69665;55.822;37.330;2024-02-23T04:40:49;99828.53;;;0.51;62.91
72942;BME280;69665;55.822;37.330;2024-02-23T04:43:15;99826.81;;;0.54;62.59
72942;BME280;69665;55.822;37.330;2024-02-23T04:45:40;99827.69;;;0.52;63.21
72942;BME280;69665;55.822;37.330;2024-02-23T04:48:06;99832.84;;;0.47;63.27
72942;BME280;69665;55.822;37.330;2024-02-23T04:50:32;99836.28;;;0.54;62.28
72942;BME280;69665;55.822;37.330;2024-02-23T04:52:58;99825.06;;;0.47;63.50
72942;BME280;69665;55.822;37.330;2024-02-23T04:55:23;99830.28;;;0.59;63.26
72942;BME280;69665;55.822;37.330;2024-02-23T04:57:49;99829.47;;;0.70;63.40
72942;BME280;69665;55.822;37.330;2024-02-23T05:00:15;99844.22;;;0.83;63.72
72942;BME280;69665;55.822;37.330;2024-02-23T05:02:40;99833.88;;;0.89;63.72
72942;BME280;69665;55.822;37.330;2024-02-23T05:05:06;99845.13;;;0.91;62.49
72942;BME280;69665;55.822;37.330;2024-02-23T05:07:33;99826.06;;;0.80;62.80
72942;BME280;69665;55.822;37.330;2024-02-23T05:09:59;99839.06;;;0.87;63.22
72942;BME280;69665;55.822;37.330;2024-02-23T05:12:25;99845.94;;;0.85;63.37
72942;BME280;69665;55.822;37.330;2024-02-23T05:14:51;99851.16;;;0.90;62.31
72942;BME280;69665;55.822;37.330;2024-02-23T05:17:17;99841.66;;;0.89;62.71
72942;BME280;69665;55.822;37.330;2024-02-23T05:19:43;99845.97;;;0.88;62.05
72942;BME280;69665;55.822;37.330;2024-02-23T05:22:08;99843.41;;;0.91;61.77
72942;BME280;69665;55.822;37.330;2024-02-23T05:24:34;99835.56;;;0.78;63.01
72942;BME280;69665;55.822;37.330;2024-02-23T05:26:59;99836.44;;;0.86;62.87
72942;BME280;69665;55.822;37.330;2024-02-23T05:29:28;99858.97;;;0.93;63.02
72942;BME280;69665;55.822;37.330;2024-02-23T05:31:53;99854.66;;;0.96;63.19
72942;BME280;69665;55.822;37.330;2024-02-23T05:34:19;99855.53;;;1.05;63.00
72942;BME280;69665;55.822;37.330;2024-02-23T05:36:46;99848.63;;;1.08;62.67
72942;BME280;69665;55.822;37.330;2024-02-23T05:39:12;99848.63;;;1.00;61.59
72942;BME280;69665;55.822;37.330;2024-02-23T05:41:41;99855.53;;;0.98;61.25
72942;BME280;69665;55.822;37.330;2024-02-23T05:44:07;99833.00;;;0.85;62.59
72942;BME280;69665;55.822;37.330;2024-02-23T05:46:34;99841.66;;;0.90;63.03
72942;BME280;69665;55.822;37.330;2024-02-23T05:49:00;99846.88;;;1.04;62.95
72942;BME280;69665;55.822;37.330;2024-02-23T05:51:26;99852.13;;;1.15;62.68
72942;BME280;69665;55.822;37.330;2024-02-23T05:53:51;99869.44;;;1.25;62.77
72942;BME280;69665;55.822;37.330;2024-02-23T05:56:17;99872.91;;;1.27;63.27
72942;BME280;69665;55.822;37.330;2024-02-23T05:58:43;99876.38;;;1.26;62.86
72942;BME280;69665;55.822;37.330;2024-02-23T06:01:08;99859.06;;;1.23;62.80
72942;BME280;69665;55.822;37.330;2024-02-23T06:03:34;99863.38;;;1.23;62.01
72942;BME280;69665;55.822;37.330;2024-02-23T06:05:59;99869.44;;;1.31;62.59
72942;BME280;69665;55.822;37.330;2024-02-23T06:08:25;99861.63;;;1.17;61.88
72942;BME280;69665;55.822;37.330;2024-02-23T06:10:51;99851.25;;;1.13;62.11
72942;BME280;69665;55.822;37.330;2024-02-23T06:13:16;99865.13;;;1.24;62.43
72942;BME280;69665;55.822;37.330;2024-02-23T06:15:42;99862.50;;;1.18;62.16
72942;BME280;69665;55.822;37.330;2024-02-23T06:18:07;99859.03;;;1.17;62.09
72942;BME280;69665;55.822;37.330;2024-02-23T06:20:33;99889.34;;;1.35;62.99
72942;BME280;69665;55.822;37.330;2024-02-23T06:22:58;99877.25;;;1.29;61.89
72942;BME280;69665;55.822;37.330;2024-02-23T06:25:24;99900.59;;;1.34;61.44
72942;BME280;69665;55.822;37.330;2024-02-23T06:27:49;99880.69;;;1.36;62.93
72942;BME280;69665;55.822;37.330;2024-02-23T06:30:15;99883.31;;;1.41;62.71
72942;BME280;69665;55.822;37.330;2024-02-23T06:32:40;99867.72;;;1.31;62.44
72942;BME280;69665;55.822;37.330;2024-02-23T06:35:06;99882.44;;;1.42;63.03
72942;BME280;69665;55.822;37.330;2024-02-23T06:37:32;99889.38;;;1.44;62.77
72942;BME280;69665;55.822;37.330;2024-02-23T06:39:58;99904.94;;;1.44;62.98
72942;BME280;69665;55.822;37.330;2024-02-23T06:42:24;99911.03;;;1.49;63.07
72942;BME280;69665;55.822;37.330;2024-02-23T06:44:50;99904.09;;;1.47;62.32
72942;BME280;69665;55.822;37.330;2024-02-23T06:47:16;99903.22;;;1.43;62.43
72942;BME280;69665;55.822;37.330;2024-02-23T06:49:42;99891.97;;;1.46;62.17
72942;BME280;69665;55.822;37.330;2024-02-23T06:52:09;99883.28;;;1.36;62.38
72942;BME280;69665;55.822;37.330;2024-02-23T06:54:34;99891.13;;;1.48;62.83
72942;BME280;69665;55.822;37.330;2024-02-23T06:57:00;99898.06;;;1.54;62.34
72942;BME280;69665;55.822;37.330;2024-02-23T06:59:26;99896.31;;;1.48;62.88
72942;BME280;69665;55.822;37.330;2024-02-23T07:01:52;99892.84;;;1.46;62.82
72942;BME280;69665;55.822;37.330;2024-02-23T07:04:17;99885.06;;;1.43;61.80
72942;BME280;69665;55.822;37.330;2024-02-23T07:06:43;99865.97;;;1.30;61.46
72942;BME280;69665;55.822;37.330;2024-02-23T07:09:09;99911.88;;;1.50;62.45
72942;BME280;69665;55.822;37.330;2024-02-23T07:11:39;99906.72;;;1.54;62.78
72942;BME280;69665;55.822;37.330;2024-02-23T07:14:07;99908.44;;;1.61;62.28
72942;BME280;69665;55.822;37.330;2024-02-23T07:16:38;99902.38;;;1.50;62.83
72942;BME280;69665;55.822;37.330;2024-02-23T07:19:05;99911.03;;;1.64;62.96
72942;BME280;69665;55.822;37.330;2024-02-23T07:21:30;99906.72;;;1.65;61.77
72942;BME280;69665;55.822;37.330;2024-02-23T07:23:56;99871.25;;;1.50;62.63
72942;BME280;69665;55.822;37.330;2024-02-23T07:26:21;99902.41;;;1.68;62.78
72942;BME280;69665;55.822;37.330;2024-02-23T07:28:48;99873.81;;;1.43;62.37
72942;BME280;69665;55.822;37.330;2024-02-23T07:31:14;99905.84;;;1.60;62.54
72942;BME280;69665;55.822;37.330;2024-02-23T07:33:42;99886.81;;;1.55;62.59
72942;BME280;69665;55.822;37.330;2024-02-23T07:36:07;99893.75;;;1.63;62.34
72942;BME280;69665;55.822;37.330;2024-02-23T07:38:39;99899.78;;;1.53;62.14
72942;BME280;69665;55.822;37.330;2024-02-23T07:41:04;99890.25;;;1.43;62.21
72942;BME280;69665;55.822;37.330;2024-02-23T07:43:30;99896.31;;;1.51;62.51
72942;BME280;69665;55.822;37.330;2024-02-23T07:45:58;99884.19;;;1.41;62.65
72942;BME280;69665;55.822;37.330;2024-02-23T07:48:24;99898.06;;;1.58;62.53
72942;BME280;69665;55.822;37.330;2024-02-23T07:50:49;99904.13;;;1.69;62.51
72942;BME280;69665;55.822;37.330;2024-02-23T07:53:15;99898.94;;;1.65;61.80
72942;BME280;69665;55.822;37.330;2024-02-23T07:55:40;99882.50;;;1.61;62.34
72942;BME280;69665;55.822;37.330;2024-02-23T07:58:06;99916.25;;;1.84;61.67
72942;BME280;69665;55.822;37.330;2024-02-23T08:00:32;99908.50;;;1.80;61.03
72942;BME280;69665;55.822;37.330;2024-02-23T08:02:59;99922.34;;;1.89;60.66
72942;BME280;69665;55.822;37.330;2024-02-23T08:05:25;99918.00;;;1.88;61.33
72942;BME280;69665;55.822;37.330;2024-02-23T08:07:51;99894.66;;;1.78;61.71
72942;BME280;69665;55.822;37.330;2024-02-23T08:10:17;99920.63;;;1.97;61.30
72942;BME280;69665;55.822;37.330;2024-02-23T08:12:43;99922.34;;;1.95;61.27
72942;BME280;69665;55.822;37.330;2024-02-23T08:15:09;99934.47;;;2.01;61.36
72942;BME280;69665;55.822;37.330;2024-02-23T08:17:36;99921.47;;;1.95;61.23
72942;BME280;69665;55.822;37.330;2024-02-23T08:20:02;99913.69;;;1.90;60.61
72942;BME280;69665;55.822;37.330;2024-02-23T08:22:29;99914.53;;;1.85;61.64
72942;BME280;69665;55.822;37.330;2024-02-23T08:24:58;99914.53;;;1.88;61.37
72942;BME280;69665;55.822;37.330;2024-02-23T08:27:24;99913.66;;;1.83;60.99
72942;BME280;69665;55.822;37.330;2024-02-23T08:29:49;99931.00;;;1.81;61.39
72942;BME280;69665;55.822;37.330;2024-02-23T08:32:15;99942.25;;;1.78;61.15
72942;BME280;69665;55.822;37.330;2024-02-23T08:34:42;99902.38;;;1.53;61.79
72942;BME280;69665;55.822;37.330;2024-02-23T08:37:08;99916.22;;;1.63;62.43
72942;BME280;69665;55.822;37.330;2024-02-23T08:39:34;99927.53;;;1.80;61.80
72942;BME280;69665;55.822;37.330;2024-02-23T08:42:02;99938.81;;;1.97;62.32
72942;BME280;69665;55.822;37.330;2024-02-23T08:44:28;99941.41;;;2.05;61.78
72942;BME280;69665;55.822;37.330;2024-02-23T08:46:54;99931.88;;;1.92;61.48
72942;BME280;69665;55.822;37.330;2024-02-23T08:49:20;99944.84;;;1.96;62.65
72942;BME280;69665;55.822;37.330;2024-02-23T08:51:46;99950.06;;;2.12;62.20
72942;BME280;69665;55.822;37.330;2024-02-23T08:54:12;99955.28;;;2.22;62.04
72942;BME280;69665;55.822;37.330;2024-02-23T08:56:38;99935.34;;;2.11;61.02
72942;BME280;69665;55.822;37.330;2024-02-23T08:59:05;99950.06;;;2.21;61.52
72942;BME280;69665;55.822;37.330;2024-02-23T09:01:30;99956.16;;;2.27;61.79
72942;BME280;69665;55.822;37.330;2024-02-23T09:03:56;99950.97;;;2.32;60.94
72942;BME280;69665;55.822;37.330;2024-02-23T09:06:21;99941.41;;;2.37;61.50
72942;BME280;69665;55.822;37.330;2024-02-23T09:08:47;99955.28;;;2.50;60.91
72942;BME280;69665;55.822;37.330;2024-02-23T09:11:13;99933.63;;;2.46;61.08
72942;BME280;69665;55.822;37.330;2024-02-23T09:13:41;99950.09;;;2.59;60.94
72942;BME280;69665;55.822;37.330;2024-02-23T09:16:09;99965.66;;;2.68;60.23
72942;BME280;69665;55.822;37.330;2024-02-23T09:18:35;99953.50;;;2.65;59.71
72942;BME280;69665;55.822;37.330;2024-02-23T09:21:01;99950.03;;;2.66;60.41
72942;BME280;69665;55.822;37.330;2024-02-23T09:23:27;99918.88;;;2.54;60.52
72942;BME280;69665;55.822;37.330;2024-02-23T09:25:52;99956.13;;;2.75;60.17
72942;BME280;69665;55.822;37.330;2024-02-23T09:28:18;99952.66;;;2.85;60.15
72942;BME280;69665;55.822;37.330;2024-02-23T09:30:44;99947.44;;;2.83;59.88
72942;BME280;69665;55.822;37.330;2024-02-23T09:33:10;99970.78;;;3.06;59.94
72942;BME280;69665;55.822;37.330;2024-02-23T09:35:36;99939.59;;;2.86;59.27
72942;BME280;69665;55.822;37.330;2024-02-23T09:38:01;99956.94;;;2.93;59.44
72942;BME280;69665;55.822;37.330;2024-02-23T09:40:28;99947.41;;;2.89;59.30
72942;BME280;69665;55.822;37.330;2024-02-23T09:42:58;99962.13;;;2.99;59.62
72942;BME280;69665;55.822;37.330;2024-02-23T09:45:27;99958.66;;;3.03;60.26
72942;BME280;69665;55.822;37.330;2024-02-23T09:47:53;99961.25;;;3.11;60.08
72942;BME280;69665;55.822;37.330;2024-02-23T09:50:22;99949.06;;;3.13;59.62
72942;BME280;69665;55.822;37.330;2024-02-23T09:52:48;99956.88;;;3.15;59.30
72942;BME280;69665;55.822;37.330;2024-02-23T09:55:20;99955.13;;;3.20;59.66
72942;BME280;69665;55.822;37.330;2024-02-23T09:57:48;99959.47;;;3.24;59.30
72942;BME280;69665;55.822;37.330;2024-02-23T10:00:17;99964.66;;;3.25;59.26
72942;BME280;69665;55.822;37.330;2024-02-23T10:02:44;99945.66;;;3.03;59.23
72942;BME280;69665;55.822;37.330;2024-02-23T10:05:14;99961.22;;;3.17;59.77
72942;BME280;69665;55.822;37.330;2024-02-23T10:07:40;99962.94;;;3.24;59.58
72942;BME280;69665;55.822;37.330;2024-02-23T10:10:08;99968.13;;;3.30;59.76
72942;BME280;69665;55.822;37.330;2024-02-23T10:12:34;99974.19;;;3.28;59.46
72942;BME280;69665;55.822;37.330;2024-02-23T10:15:02;99960.34;;;3.20;59.29
72942;BME280;69665;55.822;37.330;2024-02-23T10:17:31;99947.31;;;3.23;59.62
72942;BME280;69665;55.822;37.330;2024-02-23T10:19:57;99946.44;;;3.31;59.50
72942;BME280;69665;55.822;37.330;2024-02-23T10:22:23;99953.31;;;3.41;59.85
72942;BME280;69665;55.822;37.330;2024-02-23T10:24:52;99932.47;;;3.46;59.62
72942;BME280;69665;55.822;37.330;2024-02-23T10:27:17;99941.13;;;3.54;59.18
72942;BME280;69665;55.822;37.330;2024-02-23T10:29:43;99942.84;;;3.58;59.51
72942;BME280;69665;55.822;37.330;2024-02-23T10:32:14;99955.84;;;3.58;59.54
72942;BME280;69665;55.822;37.330;2024-02-23T10:34:42;99920.31;;;3.45;59.64
72942;BME280;69665;55.822;37.330;2024-02-23T10:37:08;99946.19;;;3.79;59.17
72942;BME280;69665;55.822;37.330;2024-02-23T10:39:38;99962.66;;;3.84;58.88
72942;BME280;69665;55.822;37.330;2024-02-23T10:42:04;99956.63;;;3.72;59.37
72942;BME280;69665;55.822;37.330;2024-02-23T10:44:33;99967.00;;;3.85;59.39
72942;BME280;69665;55.822;37.330;2024-02-23T10:47:00;99973.88;;;3.93;58.56
72942;BME280;69665;55.822;37.330;2024-02-23T10:49:29;99967.88;;;3.85;59.14
72942;BME280;69665;55.822;37.330;2024-02-23T10:51:56;99960.94;;;3.78;58.97
72942;BME280;69665;55.822;37.330;2024-02-23T10:54:22;99972.25;;;3.74;59.31
72942;BME280;69665;55.822;37.330;2024-02-23T10:56:52;99975.75;;;3.64;59.78
72942;BME280;69665;55.822;37.330;2024-02-23T10:59:19;99978.44;;;3.55;59.36
72942;BME280;69665;55.822;37.330;2024-02-23T11:01:49;99953.31;;;3.43;59.98
72942;BME280;69665;55.822;37.330;2024-02-23T11:04:22;99944.63;;;3.42;59.99
72942;BME280;69665;55.822;37.330;2024-02-23T11:06:51;99987.09;;;3.60;60.42
72942;BME280;69665;55.822;37.330;2024-02-23T11:09:21;99992.28;;;3.63;60.25
72942;BME280;69665;55.822;37.330;2024-02-23T11:11:54;99998.38;;;3.56;60.42
72942;BME280;69665;55.822;37.330;2024-02-23T11:14:34;99982.81;;;3.39;61.12
72942;BME280;69665;55.822;37.330;2024-02-23T11:17:01;100003.63;;;3.39;60.59
72942;BME280;69665;55.822;37.330;2024-02-23T11:19:35;99999.28;;;3.41;60.73
72942;BME280;69665;55.822;37.330;2024-02-23T11:22:01;99988.94;;;3.36;61.45
72942;BME280;69665;55.822;37.330;2024-02-23T11:24:32;99959.47;;;3.16;61.36
72942;BME280;69665;55.822;37.330;2024-02-23T11:27:01;100000.16;;;3.43;61.82
72942;BME280;69665;55.822;37.330;2024-02-23T11:29:34;100007.94;;;3.48;61.24
72942;BME280;69665;55.822;37.330;2024-02-23T11:32:02;100002.75;;;3.41;61.72
72942;BME280;69665;55.822;37.330;2024-02-23T11:34:30;99972.47;;;3.21;61.83
72942;BME280;69665;55.822;37.330;2024-02-23T11:37:10;99995.88;;;3.25;62.54
72942;BME280;69665;55.822;37.330;2024-02-23T11:39:39;100005.44;;;3.13;62.14
72942;BME280;69665;55.822;37.330;2024-02-23T11:42:08;100015.03;;;3.03;62.54
72942;BME280;69665;55.822;37.330;2024-02-23T11:44:34;99988.16;;;2.95;64.21
72942;BME280;69665;55.822;37.330;2024-02-23T11:47:00;99995.94;;;2.93;63.84
72942;BME280;69665;55.822;37.330;2024-02-23T11:49:30;99999.41;;;2.97;63.98
72942;BME280;69665;55.822;37.330;2024-02-23T11:51:56;99999.41;;;2.95;63.31
72942;BME280;69665;55.822;37.330;2024-02-23T11:54:22;99969.13;;;2.76;64.46
72942;BME280;69665;55.822;37.330;2024-02-23T11:56:48;99982.13;;;2.82;63.84
72942;BME280;69665;55.822;37.330;2024-02-23T11:59:15;99992.47;;;2.96;64.13
72942;BME280;69665;55.822;37.330;2024-02-23T12:01:42;100007.22;;;3.04;64.22
72942;BME280;69665;55.822;37.330;2024-02-23T12:04:08;100011.56;;;3.05;64.18
72942;BME280;69665;55.822;37.330;2024-02-23T12:06:34;100013.28;;;3.05;64.99
72942;BME280;69665;55.822;37.330;2024-02-23T12:09:01;99995.94;;;2.96;65.14
72942;BME280;69665;55.822;37.330;2024-02-23T12:11:27;100008.94;;;3.07;64.22
72942;BME280;69665;55.822;37.330;2024-02-23T12:13:53;100002.88;;;3.02;64.79
72942;BME280;69665;55.822;37.330;2024-02-23T12:16:20;99969.13;;;2.82;64.48
72942;BME280;69665;55.822;37.330;2024-02-23T12:18:52;100008.94;;;3.02;64.37
72942;BME280;69665;55.822;37.330;2024-02-23T12:21:18;99998.56;;;2.92;64.38
72942;BME280;69665;55.822;37.330;2024-02-23T12:23:45;99959.59;;;2.77;64.58
72942;BME280;69665;55.822;37.330;2024-02-23T12:26:13;100009.81;;;3.06;64.77
72942;BME280;69665;55.822;37.330;2024-02-23T12:28:39;99956.13;;;2.82;64.79
72942;BME280;69665;55.822;37.330;2024-02-23T12:31:06;100007.16;;;3.23;64.95
72942;BME280;69665;55.822;37.330;2024-02-23T12:33:34;100010.66;;;3.17;63.90
72942;BME280;69665;55.822;37.330;2024-02-23T12:36:01;100002.88;;;3.05;64.46
72942;BME280;69665;55.822;37.330;2024-02-23T12:38:28;100013.25;;;3.17;65.00
72942;BME280;69665;55.822;37.330;2024-02-23T12:40:54;100017.56;;;3.21;65.28
72942;BME280;69665;55.822;37.330;2024-02-23T12:43:20;100002.84;;;3.14;65.14
72942;BME280;69665;55.822;37.330;2024-02-23T12:45:47;100015.84;;;3.25;65.29
72942;BME280;69665;55.822;37.330;2024-02-23T12:48:17;100008.91;;;3.25;65.12
72942;BME280;69665;55.822;37.330;2024-02-23T12:50:43;100015.84;;;3.28;64.12
72942;BME280;69665;55.822;37.330;2024-02-23T12:56:01;100007.09;;;3.39;65.28
72942;BME280;69665;55.822;37.330;2024-02-23T12:58:27;100014.03;;;3.44;65.08
72942;BME280;69665;55.822;37.330;2024-02-23T13:00:53;99955.16;;;3.12;64.47